SKBQ/BAQ METAR and TAF weather

Enter ICAO airport designator
Station Type Date Time Source
SKBQ METAR 2019/08/25 07:00 UTC NOAA

SKBQ 250700Z 04006KT 9999 SCT010 28/26 A2980 NOSIG


Station Type Date Time Source
SKBQ Decoded METAR 2019/08/25 07:00 UTC NOAA

Station name not available
Aug 25, 2019 - 03:00 AM EDT / 2019.08.25 0700 UTC
Wind: from the NE (040 degrees) at 7 MPH (6 KT):0
Visibility: greater than 7 mile(s):0
Sky conditions: partly cloudy
Temperature: 82 F (28 C)
Dew Point: 78 F (26 C)
Relative Humidity: 88%
Pressure (altimeter): 29.8 in. Hg (1009 hPa)
ob: SKBQ 250700Z 04006KT 9999 SCT010 28/26 A2980 NOSIG
cycle: 7

Station Type Date Time Source
SKBQ TAF 2019/08/25 06:44 UTC NOAA

TAF SKBQ 250430Z 2506/2606 01006KT 9999 SCT015
TEMPO 2510/2513 5000 BR SCT010
BECMG 2516/2517 36010KT PROB40
TEMPO 2519/2522 DZRA SCT015CB TX35/2517Z TN25/2510Z

Example: see airport list